Time;durP1;ratioP1;P1;durP2;ratioP2;P2;SDS_P1;SDS_P2;PMS_P1;PMS_P2;Temp;Humidity;BMP_temperature;BMP_pressure;BME280_temperature;BME280_humidity;BME280_pressure;Samples;Min_cycle;Max_cycle;Signal;HPM_P1;HPM_P2
2022/08/26 00:01:54;;;;;;;43.70;39.25;;;;;;;;;;5093114;28;20024;-79
2022/08/26 00:04:20;;;;;;;44.53;40.13;;;;;;;;;;5092857;28;20034;-78
2022/08/26 00:06:47;;;;;;;45.90;41.05;;;;;;;;;;5126237;27;20397;-79
2022/08/26 00:09:13;;;;;;;47.65;41.33;;;;;;;;;;5093348;28;20027;-78
2022/08/26 00:11:39;;;;;;;45.22;40.33;;;;;;;;;;5093381;28;20043;-79
2022/08/26 00:14:05;;;;;;;49.35;40.20;;;;;;;;;;5093570;28;20012;-78
2022/08/26 00:16:32;;;;;;;50.03;42.75;;;;;;;;;;5093223;28;20032;-78
2022/08/26 00:18:58;;;;;;;43.38;38.35;;;;;;;;;;5125429;27;20451;-77
2022/08/26 00:21:24;;;;;;;46.78;41.80;;;;;;;;;;5093031;28;20106;-76
2022/08/26 00:23:50;;;;;;;45.63;40.83;;;;;;;;;;5077725;28;20506;-77
2022/08/26 00:26:17;;;;;;;46.80;42.05;;;;;;;;;;5093054;28;20017;-75
2022/08/26 00:28:43;;;;;;;46.65;41.38;;;;;;;;;;5092701;28;20013;-77
2022/08/26 00:31:09;;;;;;;45.40;40.58;;;;;;;;;;5122372;27;20012;-78
2022/08/26 00:33:35;;;;;;;45.85;41.03;;;;;;;;;;5116945;27;20034;-76
2022/08/26 00:36:01;;;;;;;45.55;40.55;;;;;;;;;;5122173;27;20457;-78
2022/08/26 00:38:27;;;;;;;48.08;43.20;;;;;;;;;;5125234;27;20058;-77
2022/08/26 00:40:54;;;;;;;52.30;41.45;;;;;;;;;;5089525;28;20023;-77
2022/08/26 00:43:21;;;;;;;51.20;41.75;;;;;;;;;;5092320;28;20065;-77
2022/08/26 00:45:52;;;;;;;48.85;42.58;;;;;;;;;;5092447;28;20039;-76
2022/08/26 00:48:20;;;;;;;46.33;41.40;;;;;;;;;;5079935;28;20468;-75
2022/08/26 00:50:57;;;;;;;48.08;42.85;;;;;;;;;;5119224;27;21072;-77
2022/08/26 00:53:26;;;;;;;49.33;44.00;;;;;;;;;;5089663;28;20036;-77
2022/08/26 00:55:54;;;;;;;47.25;42.45;;;;;;;;;;5090539;28;20031;-77
2022/08/26 00:58:22;;;;;;;49.55;42.85;;;;;;;;;;5078222;28;20024;-77
2022/08/26 01:00:48;;;;;;;51.05;44.03;;;;;;;;;;5112505;27;20464;-77
2022/08/26 01:03:15;;;;;;;47.40;42.50;;;;;;;;;;5076426;28;20107;-76
2022/08/26 01:05:41;;;;;;;45.28;40.35;;;;;;;;;;5092141;28;20380;-79
2022/08/26 01:08:07;;;;;;;50.53;42.13;;;;;;;;;;5092156;28;20459;-78
2022/08/26 01:10:33;;;;;;;47.38;42.33;;;;;;;;;;5092278;28;20020;-78
2022/08/26 01:13:02;;;;;;;53.35;44.42;;;;;;;;;;5092023;28;20581;-79
2022/08/26 01:15:36;;;;;;;47.42;42.42;;;;;;;;;;5091948;28;20372;-77
2022/08/26 01:18:04;;;;;;;47.22;42.30;;;;;;;;;;5091787;28;20493;-76
2022/08/26 01:20:30;;;;;;;47.83;41.97;;;;;;;;;;5110201;27;20025;-78
2022/08/26 01:23:00;;;;;;;48.13;41.28;;;;;;;;;;5091631;28;20044;-76
2022/08/26 01:25:28;;;;;;;46.17;41.05;;;;;;;;;;5092272;28;20028;-79
2022/08/26 01:27:56;;;;;;;49.33;43.38;;;;;;;;;;5124432;27;20020;-78
2022/08/26 01:30:23;;;;;;;48.20;42.92;;;;;;;;;;5091675;28;20054;-77
2022/08/26 01:32:50;;;;;;;47.33;42.42;;;;;;;;;;5091485;28;20491;-78
2022/08/26 01:35:16;;;;;;;46.33;41.38;;;;;;;;;;5124087;27;20036;-76
2022/08/26 01:37:42;;;;;;;48.47;42.30;;;;;;;;;;5085128;28;20026;-77
2022/08/26 01:40:12;;;;;;;49.25;40.95;;;;;;;;;;5124436;27;20043;-76
2022/08/26 01:42:41;;;;;;;50.20;44.90;;;;;;;;;;5124399;27;20105;-75
2022/08/26 01:45:10;;;;;;;46.15;41.22;;;;;;;;;;5091225;28;20020;-75
2022/08/26 01:47:37;;;;;;;46.97;42.28;;;;;;;;;;5088096;28;20024;-76
2022/08/26 01:50:06;;;;;;;51.03;43.78;;;;;;;;;;5090167;28;20039;-77
2022/08/26 01:52:32;;;;;;;47.22;42.08;;;;;;;;;;5091050;28;20101;-77
2022/08/26 01:54:59;;;;;;;50.92;44.15;;;;;;;;;;5084008;28;20379;-76
2022/08/26 01:57:25;;;;;;;54.10;44.65;;;;;;;;;;5117842;28;20028;-77
2022/08/26 01:59:53;;;;;;;46.67;42.03;;;;;;;;;;5091327;28;20015;-77
2022/08/26 02:02:19;;;;;;;48.70;43.70;;;;;;;;;;5091090;28;20035;-77
2022/08/26 02:04:48;;;;;;;52.83;43.20;;;;;;;;;;5124008;27;20107;-75
2022/08/26 02:07:15;;;;;;;49.70;44.45;;;;;;;;;;5091296;28;20031;-76
2022/08/26 02:09:41;;;;;;;52.40;45.60;;;;;;;;;;5123782;27;20062;-77
2022/08/26 02:12:10;;;;;;;51.90;44.25;;;;;;;;;;5098090;28;20023;-76
2022/08/26 02:14:40;;;;;;;51.20;45.50;;;;;;;;;;5091158;28;20432;-77
2022/08/26 02:17:07;;;;;;;56.08;44.50;;;;;;;;;;5089696;28;20071;-76
2022/08/26 02:19:35;;;;;;;53.15;46.63;;;;;;;;;;5090822;28;20058;-78
2022/08/26 02:22:03;;;;;;;49.47;44.35;;;;;;;;;;5091294;28;20087;-78
2022/08/26 02:24:30;;;;;;;52.97;45.25;;;;;;;;;;5090815;28;20024;-78
2022/08/26 02:26:57;;;;;;;55.22;46.30;;;;;;;;;;5091092;28;20024;-79
2022/08/26 02:29:28;;;;;;;50.65;45.25;;;;;;;;;;5091090;28;20020;-78
2022/08/26 02:31:54;;;;;;;50.83;45.38;;;;;;;;;;5091246;28;20017;-77
2022/08/26 02:34:27;;;;;;;52.80;46.40;;;;;;;;;;5091017;28;20020;-75
2022/08/26 02:36:53;;;;;;;51.65;46.03;;;;;;;;;;5089810;28;20070;-76
2022/08/26 02:39:19;;;;;;;50.50;44.70;;;;;;;;;;5090914;28;20023;-76
2022/08/26 02:41:45;;;;;;;50.58;45.08;;;;;;;;;;5123999;27;20098;-76
2022/08/26 02:44:12;;;;;;;56.85;46.92;;;;;;;;;;5104922;28;20046;-79
2022/08/26 02:46:38;;;;;;;49.85;44.63;;;;;;;;;;5093530;28;20017;-76
2022/08/26 02:49:04;;;;;;;50.83;45.33;;;;;;;;;;5094619;28;20020;-75
2022/08/26 02:51:30;;;;;;;49.92;44.53;;;;;;;;;;5093510;28;20539;-75
2022/08/26 02:53:56;;;;;;;57.58;47.38;;;;;;;;;;5093352;28;20027;-76
2022/08/26 02:56:23;;;;;;;50.45;45.25;;;;;;;;;;5094391;28;20407;-77
2022/08/26 02:58:49;;;;;;;51.97;44.92;;;;;;;;;;5094468;28;20028;-75
2022/08/26 03:01:29;;;;;;;54.50;44.47;;;;;;;;;;5094976;28;20087;-77
2022/08/26 03:03:55;;;;;;;52.35;46.38;;;;;;;;;;5093040;28;20049;-77
2022/08/26 03:06:21;;;;;;;56.20;46.95;;;;;;;;;;5094784;28;20031;-78
2022/08/26 03:08:48;;;;;;;53.10;47.33;;;;;;;;;;5094858;28;20016;-76
2022/08/26 03:11:14;;;;;;;49.63;44.53;;;;;;;;;;5094322;28;20016;-76
2022/08/26 03:13:40;;;;;;;53.45;46.05;;;;;;;;;;5127198;27;20020;-77
2022/08/26 03:16:06;;;;;;;54.30;47.03;;;;;;;;;;5094404;28;20024;-76
2022/08/26 03:18:33;;;;;;;53.80;47.35;;;;;;;;;;5094347;28;20486;-76
2022/08/26 03:21:04;;;;;;;51.05;45.50;;;;;;;;;;5122212;27;20025;-76
2022/08/26 03:23:30;;;;;;;52.55;46.47;;;;;;;;;;5101047;28;20094;-78
2022/08/26 03:25:57;;;;;;;56.25;46.65;;;;;;;;;;5093763;28;20048;-78
2022/08/26 03:28:23;;;;;;;53.53;47.80;;;;;;;;;;5094179;28;20358;-76
2022/08/26 03:30:49;;;;;;;53.40;47.45;;;;;;;;;;5093920;28;20024;-76
2022/08/26 03:33:15;;;;;;;54.10;48.22;;;;;;;;;;5093705;28;20024;-77
2022/08/26 03:35:42;;;;;;;53.38;47.83;;;;;;;;;;5093941;28;20403;-77
2022/08/26 03:38:08;;;;;;;56.05;48.50;;;;;;;;;;5117834;27;20103;-77
2022/08/26 03:40:38;;;;;;;60.90;50.13;;;;;;;;;;5087301;28;20028;-78
2022/08/26 03:43:05;;;;;;;56.88;48.83;;;;;;;;;;5086241;28;20399;-78
2022/08/26 03:45:31;;;;;;;55.20;49.30;;;;;;;;;;5089395;28;20024;-77
2022/08/26 03:47:57;;;;;;;54.50;48.22;;;;;;;;;;5093315;28;20142;-76
2022/08/26 03:50:24;;;;;;;59.70;49.20;;;;;;;;;;5094011;28;20026;-78
2022/08/26 03:52:51;;;;;;;63.30;47.13;;;;;;;;;;5089643;28;20031;-77
2022/08/26 03:55:17;;;;;;;54.13;47.85;;;;;;;;;;5088917;28;20419;-77
2022/08/26 03:57:43;;;;;;;55.03;45.05;;;;;;;;;;5088258;28;20035;-76
2022/08/26 04:00:13;;;;;;;53.50;46.83;;;;;;;;;;5093513;28;20030;-76
2022/08/26 04:02:39;;;;;;;52.58;46.92;;;;;;;;;;5093351;28;20064;-76
2022/08/26 04:05:06;;;;;;;50.03;44.10;;;;;;;;;;5126244;27;20432;-76
2022/08/26 04:07:32;;;;;;;57.60;45.20;;;;;;;;;;5091965;28;20387;-76
2022/08/26 04:09:58;;;;;;;55.08;47.25;;;;;;;;;;5126097;27;20490;-78
2022/08/26 04:12:24;;;;;;;49.45;44.58;;;;;;;;;;5125911;27;20475;-77
2022/08/26 04:14:51;;;;;;;55.72;47.60;;;;;;;;;;5082833;28;20063;-76
2022/08/26 04:17:18;;;;;;;55.85;48.50;;;;;;;;;;5122242;27;20028;-77
2022/08/26 04:19:44;;;;;;;53.25;45.80;;;;;;;;;;5091757;28;20024;-78
2022/08/26 04:22:10;;;;;;;56.20;46.47;;;;;;;;;;5092793;28;20454;-78
2022/08/26 04:24:38;;;;;;;49.22;43.90;;;;;;;;;;5125817;27;20024;-77
2022/08/26 04:27:04;;;;;;;47.50;42.40;;;;;;;;;;5112627;27;20024;-78
2022/08/26 04:29:30;;;;;;;52.28;43.28;;;;;;;;;;5110084;27;20032;-77
2022/08/26 04:31:57;;;;;;;49.97;43.13;;;;;;;;;;5092690;28;20411;-78
2022/08/26 04:34:24;;;;;;;47.25;42.35;;;;;;;;;;5078169;28;20063;-79
2022/08/26 04:36:50;;;;;;;55.28;43.08;;;;;;;;;;5092751;28;20495;-79
2022/08/26 04:39:18;;;;;;;48.13;42.70;;;;;;;;;;5125486;27;20368;-78
2022/08/26 04:41:45;;;;;;;59.03;44.58;;;;;;;;;;5092608;28;20383;-78
2022/08/26 04:44:11;;;;;;;46.30;41.25;;;;;;;;;;5092961;28;20054;-76
2022/08/26 04:46:37;;;;;;;51.25;42.20;;;;;;;;;;5125390;27;20039;-76
2022/08/26 04:49:07;;;;;;;44.47;39.45;;;;;;;;;;5125204;27;20023;-77
2022/08/26 04:51:33;;;;;;;46.60;41.00;;;;;;;;;;5092779;28;20020;-78
2022/08/26 04:53:59;;;;;;;44.88;39.42;;;;;;;;;;5092473;28;20050;-78
2022/08/26 04:56:26;;;;;;;46.80;40.75;;;;;;;;;;5077789;28;20063;-77
2022/08/26 04:58:53;;;;;;;49.72;40.30;;;;;;;;;;5092606;28;20185;-75
2022/08/26 05:01:20;;;;;;;50.65;41.53;;;;;;;;;;5092480;28;20020;-77
2022/08/26 05:03:46;;;;;;;51.22;40.97;;;;;;;;;;5092362;28;20070;-75
2022/08/26 05:06:13;;;;;;;58.35;42.75;;;;;;;;;;5088615;28;20498;-75
2022/08/26 05:08:39;;;;;;;49.78;40.25;;;;;;;;;;5111987;27;20061;-77
2022/08/26 05:11:06;;;;;;;47.10;38.90;;;;;;;;;;5090734;28;20024;-78
2022/08/26 05:13:33;;;;;;;51.47;44.30;;;;;;;;;;5124844;27;20057;-79
2022/08/26 05:16:03;;;;;;;49.78;43.40;;;;;;;;;;5124947;27;20429;-78
2022/08/26 05:18:30;;;;;;;55.03;42.88;;;;;;;;;;5114188;27;20024;-78
2022/08/26 05:20:56;;;;;;;49.80;40.78;;;;;;;;;;5088030;28;20047;-78
2022/08/26 05:23:23;;;;;;;41.72;37.20;;;;;;;;;;5092083;28;20035;-77
2022/08/26 05:25:50;;;;;;;43.28;35.35;;;;;;;;;;5089879;28;20035;-78
2022/08/26 05:28:17;;;;;;;39.00;34.72;;;;;;;;;;5090656;28;20020;-77
2022/08/26 05:30:43;;;;;;;40.13;34.70;;;;;;;;;;5088807;28;20118;-76
2022/08/26 05:33:09;;;;;;;40.17;36.17;;;;;;;;;;5107580;27;20540;-76
2022/08/26 05:35:37;;;;;;;41.67;33.28;;;;;;;;;;5085856;28;20483;-76
2022/08/26 05:38:04;;;;;;;43.72;34.95;;;;;;;;;;5087527;28;20052;-80
2022/08/26 05:40:33;;;;;;;38.95;35.15;;;;;;;;;;5087247;28;20124;-77
2022/08/26 05:42:59;;;;;;;38.63;33.38;;;;;;;;;;5089813;28;20372;-77
2022/08/26 05:45:26;;;;;;;38.70;33.65;;;;;;;;;;5088518;28;20031;-77
2022/08/26 05:47:52;;;;;;;36.75;32.33;;;;;;;;;;5088997;28;20012;-75
2022/08/26 05:50:24;;;;;;;42.08;32.72;;;;;;;;;;5118745;27;20467;-74
2022/08/26 05:52:50;;;;;;;35.78;31.70;;;;;;;;;;5088504;28;20482;-75
2022/08/26 05:55:16;;;;;;;35.70;31.20;;;;;;;;;;5088077;28;20039;-77
2022/08/26 05:57:43;;;;;;;35.83;31.10;;;;;;;;;;5115807;27;20024;-74
2022/08/26 06:00:10;;;;;;;37.00;30.17;;;;;;;;;;5089933;28;20027;-74
2022/08/26 06:02:38;;;;;;;32.35;28.85;;;;;;;;;;5078670;28;20023;-76
2022/08/26 06:05:04;;;;;;;38.08;29.58;;;;;;;;;;5083101;28;20043;-75
2022/08/26 06:10:15;;;;;;;34.65;29.48;;;;;;;;;;5084634;28;20451;-76
2022/08/26 06:12:41;;;;;;;36.83;30.05;;;;;;;;;;5120610;28;20024;-77
2022/08/26 06:15:07;;;;;;;34.60;29.25;;;;;;;;;;5085081;28;20036;-76
2022/08/26 06:17:34;;;;;;;35.25;27.17;;;;;;;;;;5090869;28;20047;-75
2022/08/26 06:20:00;;;;;;;36.53;29.80;;;;;;;;;;5123651;27;20072;-75
2022/08/26 06:25:40;;;;;;;32.13;29.00;;;;;;;;;;5078560;28;20032;-75
2022/08/26 06:28:06;;;;;;;33.40;27.40;;;;;;;;;;5083621;28;20470;-75
2022/08/26 06:30:33;;;;;;;35.35;30.48;;;;;;;;;;5120712;27;20055;-77
2022/08/26 06:32:59;;;;;;;34.25;30.52;;;;;;;;;;5091649;28;20481;-75
2022/08/26 06:35:26;;;;;;;34.45;29.02;;;;;;;;;;5084587;28;20503;-75
2022/08/26 06:37:52;;;;;;;48.38;33.17;;;;;;;;;;5086302;28;20070;-75
2022/08/26 06:40:19;;;;;;;46.30;31.58;;;;;;;;;;5094661;28;20024;-76
2022/08/26 06:42:45;;;;;;;34.95;29.52;;;;;;;;;;5091719;28;20034;-75
2022/08/26 06:45:11;;;;;;;28.17;25.17;;;;;;;;;;5093745;28;20024;-79
2022/08/26 06:47:37;;;;;;;32.25;27.77;;;;;;;;;;5081592;28;20024;-76
2022/08/26 06:50:03;;;;;;;29.02;25.48;;;;;;;;;;5093515;28;20094;-75
2022/08/26 06:52:29;;;;;;;30.65;26.40;;;615.20;128.00;;;;;;5092313;28;20535;-76
2022/08/26 06:54:55;;;;;;;36.70;27.30;;;;;;;;;;5088441;28;20119;-75
2022/08/26 06:57:21;;;;;;;30.50;27.27;;;;;;;;;;5082655;28;20012;-76
2022/08/26 06:59:47;;;;;;;34.20;27.08;;;;;;;;;;5093530;28;20349;-76
2022/08/26 07:02:13;;;;;;;32.55;26.77;;;;;;;;;;5122813;27;20020;-77
2022/08/26 07:04:40;;;;;;;29.52;26.52;;;;;;;;;;5092542;28;20027;-75
2022/08/26 07:07:06;;;;;;;36.83;26.90;;;;;;;;;;5092486;28;20043;-76
2022/08/26 07:09:34;;;;;;;35.42;26.60;;;;;;;;;;5084211;28;20095;-76
2022/08/26 07:12:00;;;;;;;36.28;26.35;;;;;;;;;;5092465;28;20016;-76
2022/08/26 07:14:26;;;;;;;29.23;26.02;;;;;;;;;;5092759;28;20024;-76
2022/08/26 07:16:53;;;;;;;38.40;27.23;;;;;;;;;;5089847;28;20074;-75
2022/08/26 07:19:20;;;;;;;38.63;26.92;;;;;;;;;;5093940;28;20024;-75
2022/08/26 07:21:46;;;;;;;27.13;24.30;;;;;;;;;;5093764;28;20044;-76
2022/08/26 07:24:12;;;;;;;35.35;25.70;;;;;;;;;;5093161;28;20021;-76
2022/08/26 07:26:38;;;;;;;29.83;26.70;;;;;;;;;;5126284;27;20391;-77
2022/08/26 07:29:05;;;;;;;28.92;23.73;;;;;;;;;;5093594;28;20026;-76
2022/08/26 07:31:34;;;;;;;26.73;23.92;;;;;;;;;;5093753;28;20024;-76
2022/08/26 07:34:00;;;;;;;34.72;31.05;;;;;;;;;;5111808;27;20024;-78
2022/08/26 07:36:27;;;;;;;28.40;24.83;;;;;;;;;;5120475;27;20399;-77
2022/08/26 07:38:54;;;;;;;29.50;24.65;;;;;;;;;;5126450;27;20177;-79
2022/08/26 07:41:22;;;;;;;30.85;23.67;;;;;;;;;;5093511;28;20023;-74
2022/08/26 07:43:48;;;;;;;29.20;21.52;;;;;;;;;;5126224;27;20023;-78
2022/08/26 07:46:18;;;;;;;28.35;22.48;;;;;;;;;;5086039;28;20029;-79
2022/08/26 07:48:45;;;;;;;26.42;22.10;;;;;;;;;;5083260;28;20475;-80
2022/08/26 07:51:11;;;;;;;32.97;25.17;;;;;;;;;;5123777;27;20463;-77
2022/08/26 07:53:38;;;;;;;35.55;31.83;;;;;;;;;;5091535;28;20078;-78
2022/08/26 07:56:04;;;;;;;29.58;26.20;;;;;;;;;;5089601;28;20051;-81
2022/08/26 07:58:31;;;;;;;27.58;23.58;;;;;;;;;;5085100;28;20035;-78
2022/08/26 08:00:57;;;;;;;40.78;26.70;;;;;;;;;;5112648;27;20025;-78
2022/08/26 08:03:23;;;;;;;34.15;27.13;;;;;;;;;;5087319;28;20020;-78
2022/08/26 08:05:49;;;;;;;29.95;23.27;;;;;;;;;;5125040;27;20031;-78
2022/08/26 08:08:15;;;;;;;30.95;23.48;;;;;;;;;;5091389;28;20464;-79
2022/08/26 08:10:43;;;;;;;33.88;23.70;;;;;;;;;;5093437;28;20487;-78
2022/08/26 08:13:10;;;;;;;32.40;19.95;;;;;;;;;;5125974;27;20074;-80
2022/08/26 08:15:36;;;;;;;23.98;17.67;;;;;;;;;;5123469;27;20040;-74
2022/08/26 08:18:02;;;;;;;27.02;18.90;;;;;;;;;;5114099;27;20024;-78
2022/08/26 08:20:29;;;;;;;30.38;19.00;;;;;;;;;;5125874;27;20032;-77
2022/08/26 08:22:55;;;;;;;30.98;18.95;;;;;;;;;;5090812;28;20131;-76
2022/08/26 08:25:21;;;;;;;22.60;18.45;;;;;;;;;;5125620;27;20059;-77
2022/08/26 08:27:47;;;;;;;30.30;20.80;;;;;;;;;;5124963;27;20020;-78
2022/08/26 08:30:14;;;;;;;25.55;16.73;;;;;;;;;;5090888;28;20115;-78
2022/08/26 08:32:42;;;;;;;24.08;18.20;;;;;;;;;;5121981;27;20024;-78
2022/08/26 08:35:09;;;;;;;24.10;18.73;;;;;;;;;;5119369;27;20043;-78
2022/08/26 08:37:35;;;;;;;25.83;21.63;;;;;;;;;;5091036;28;20022;-78
2022/08/26 08:40:01;;;;;;;21.42;16.40;;;;;;;;;;5088747;28;20467;-79
2022/08/26 08:42:46;;;;;;;22.58;15.90;;;;;;;;;;5090503;28;20077;-79
2022/08/26 08:45:14;;;;;;;23.10;18.63;;;;;;;;;;5090766;28;20020;-79
2022/08/26 08:47:42;;;;;;;27.15;18.00;;;;;;;;;;5091062;28;20486;-77
2022/08/26 08:50:17;;;;;;;20.30;17.35;;;;;;;;;;5091853;28;20052;-75
2022/08/26 08:52:44;;;;;;;38.08;21.42;;;;;;;;;;5089304;28;20101;-75
2022/08/26 08:55:13;;;;;;;22.17;16.02;;;;;;;;;;5091850;28;20115;-76
2022/08/26 08:57:45;;;;;;;19.13;16.38;;;;;;;;;;5092271;28;20095;-78
2022/08/26 09:00:16;;;;;;;25.02;18.23;;;;;;;;;;5125431;27;20035;-77
2022/08/26 09:02:44;;;;;;;23.92;17.80;;;;;;;;;;5125302;27;20024;-78
2022/08/26 09:05:31;;;;;;;23.00;15.25;;;;;;;;;;5114380;27;20137;-79
2022/08/26 09:08:01;;;;;;;22.77;17.08;;;;;;;;;;5071799;28;20372;-78
2022/08/26 09:10:30;;;;;;;21.48;15.40;;;;;;;;;;5071439;28;20035;-78
2022/08/26 09:12:56;;;;;;;27.58;15.23;;;;;;;;;;5087072;28;20471;-78
2022/08/26 09:15:25;;;;;;;27.10;15.20;;;;;;;;;;5091629;28;20028;-77
2022/08/26 09:17:51;;;;;;;21.77;14.55;;;;;;;;;;5084200;28;20045;-78
2022/08/26 09:20:20;;;;;;;26.90;15.75;;;;;;;;;;5083249;28;20086;-79
2022/08/26 09:22:46;;;;;;;23.45;16.00;;;;;;;;;;5109762;27;20052;-80
2022/08/26 09:25:14;;;;;;;15.88;13.88;;;;;;;;;;5088801;28;20060;-78
2022/08/26 09:27:59;;;;;;;18.85;14.02;;;;;;;;;;5089168;28;20070;-79
2022/08/26 09:30:27;;;;;;;31.10;21.63;;;;;;;;;;5109855;27;20028;-80
2022/08/26 09:32:57;;;;;;;20.60;14.77;;;;;;;;;;5124616;27;20012;-78
2022/08/26 09:35:34;;;;;;;27.23;17.77;;;;;;;;;;5091331;28;20040;-78
2022/08/26 09:38:03;;;;;;;24.98;13.50;;;;;;;;;;5091676;28;20024;-79
2022/08/26 09:40:29;;;;;;;19.33;12.73;;;;;;;;;;5077305;28;20141;-78
2022/08/26 09:43:06;;;;;;;16.02;12.00;;;;;;;;;;5091390;28;20017;-78
2022/08/26 09:45:38;;;;;;;15.93;12.35;;;;;;;;;;5091379;28;20472;-78
2022/08/26 09:48:05;;;;;;;22.45;9.95;;;;;;;;;;5077664;28;20056;-79
2022/08/26 09:50:39;;;;;;;15.63;9.63;;;;;;;;;;5105753;28;20042;-80
2022/08/26 09:53:08;;;;;;;31.95;11.60;;;;;;;;;;5092287;28;20032;-77
2022/08/26 09:55:34;;;;;;;18.50;14.10;;;;;;;;;;5081076;28;20094;-79
2022/08/26 09:58:00;;;;;;;24.90;9.07;;;;;;;;;;5090943;28;20026;-79
2022/08/26 10:00:29;;;;;;;22.13;9.45;;;;;;;;;;5090089;28;20421;-78
2022/08/26 10:02:59;;;;;;;24.17;8.77;;;;;;;;;;5123693;28;20054;-78
2022/08/26 10:05:30;;;;;;;32.42;9.82;;;;;;;;;;5123886;27;20049;-79
2022/08/26 10:07:56;;;;;;;24.52;10.25;;;;;;;;;;5091142;28;20494;-77
2022/08/26 10:10:25;;;;;;;21.20;10.27;;;;;;;;;;5123825;28;20020;-77
2022/08/26 10:13:05;;;;;;;32.22;11.57;;;;;;;;;;5124179;27;20043;-79
2022/08/26 10:15:57;;;;;;;21.98;9.13;;;;;;;;;;5089488;28;20050;-79
2022/08/26 10:18:26;;;;;;;20.92;9.70;;;;;;;;;;5074365;28;20051;-77
2022/08/26 10:21:01;;;;;;;29.83;12.35;;;;;;;;;;5091359;28;20024;-79
2022/08/26 10:23:29;;;;;;;27.92;17.63;;;;;;;;;;5123900;27;20052;-79
2022/08/26 10:26:04;;;;;;;26.00;14.05;;;;;;;;;;5123956;27;20063;-78
2022/08/26 10:28:49;;;;;;;21.42;11.05;;;;;;;;;;5090233;28;20024;-79
2022/08/26 10:31:25;;;;;;;20.05;9.40;;;;;;;;;;5081035;28;20035;-78
2022/08/26 10:33:52;;;;;;;22.05;10.10;;;;;;;;;;5085675;28;20028;-78
2022/08/26 10:39:07;;;;;;;25.77;13.98;;;;;;;;;;5091011;28;20035;-79
2022/08/26 10:41:37;;;;;;;21.98;9.23;;;;;;;;;;5095088;28;20455;-79
2022/08/26 10:44:05;;;;;;;25.90;12.93;;;;;;;;;;5100061;28;20419;-80
2022/08/26 10:46:53;;;;;;;25.70;16.23;;;;;;;;;;5112272;28;20047;-78
2022/08/26 10:49:19;;;;;;;37.88;15.55;;;;;;;;;;5089911;28;20024;-79
2022/08/26 10:51:49;;;;;;;27.65;10.07;;;;;;;;;;5123272;27;20065;-83
2022/08/26 10:54:15;;;;;;;48.97;30.05;;;;;;;;;;5084471;28;20032;-81
2022/08/26 10:56:47;;;;;;;29.30;15.95;;;;;;;;;;5089972;28;20497;-78
2022/08/26 10:59:16;;;;;;;44.13;29.95;;;;;;;;;;5124352;27;20098;-79
2022/08/26 11:01:51;;;;;;;36.80;24.52;;;;;;;;;;5123682;27;20131;-77
2022/08/26 11:04:49;;;;;;;45.83;27.13;;;;;;;;;;5089860;28;20103;-77
2022/08/26 11:07:31;;;;;;;49.72;29.50;;;;;;;;;;5065592;28;20033;-76
2022/08/26 11:09:59;;;;;;;36.63;15.43;;;;;;;;;;5080683;28;20050;-77
2022/08/26 11:12:34;;;;;;;29.60;13.23;;;;;;;;;;5117872;27;20034;-77
2022/08/26 11:15:11;;;;;;;36.28;13.05;;;;;;;;;;5092969;28;20055;-78
2022/08/26 11:17:44;;;;;;;22.05;7.18;;;;;;;;;;5092874;28;20023;-76
2022/08/26 11:20:22;;;;;;;33.03;7.45;;;;;;;;;;5104064;28;20097;-78
2022/08/26 11:22:49;;;;;;;23.67;8.43;;;;;;;;;;5090707;28;20131;-79
2022/08/26 11:25:16;;;;;;;29.00;13.00;;;;;;;;;;5116611;27;20458;-80
2022/08/26 11:27:43;;;;;;;27.08;11.07;;;;;;;;;;5092045;28;20387;-77
2022/08/26 11:30:12;;;;;;;17.67;8.32;;;;;;;;;;5126625;27;20023;-81
2022/08/26 11:32:38;;;;;;;22.30;7.22;;;;;;;;;;5089798;28;20021;-78
2022/08/26 11:35:06;;;;;;;29.30;15.35;;;;;;;;;;5125357;27;20356;-79
2022/08/26 11:37:36;;;;;;;17.27;8.35;;;;;;;;;;5092752;28;20020;-78
2022/08/26 11:40:06;;;;;;;24.75;10.55;;;;;;;;;;5117883;27;20021;-77
2022/08/26 11:42:50;;;;;;;36.50;26.10;;;;;;;;;;5089296;28;20023;-79
2022/08/26 11:45:36;;;;;;;38.28;20.70;;;;;;;;;;5094203;28;20028;-78
2022/08/26 11:48:14;;;;;;;25.63;8.63;;;;;;;;;;5093911;28;20016;-78
2022/08/26 11:50:40;;;;;;;19.80;12.38;;;;;;;;;;5114233;27;20364;-77
2022/08/26 11:53:06;;;;;;;18.92;8.48;;;;;;;;;;5092036;28;20026;-79
2022/08/26 11:55:40;;;;;;;20.30;10.70;;;;;;;;;;5082618;28;20112;-77
2022/08/26 11:58:06;;;;;;;26.58;8.85;;;;;;;;;;5085446;28;20027;-79
2022/08/26 12:00:34;;;;;;;22.20;8.85;;;;;;;;;;5118680;27;20055;-78
2022/08/26 12:03:01;;;;;;;20.65;8.88;;;;;;;;;;5113239;27;20467;-78
2022/08/26 12:05:35;;;;;;;22.83;9.50;;;;;;;;;;5123645;27;20032;-79
2022/08/26 12:08:05;;;;;;;24.30;12.30;;;;;;;;;;5089952;28;20020;-75
2022/08/26 12:10:32;;;;;;;24.35;10.18;;;;;;;;;;5091635;28;20019;-78
2022/08/26 12:12:59;;;;;;;24.70;11.20;;;;;;;;;;5085413;28;20357;-78
2022/08/26 12:15:27;;;;;;;23.45;7.88;;;;;;;;;;5090192;28;20032;-76
2022/08/26 12:17:53;;;;;;;25.73;9.40;;;;;;;;;;5086358;28;20016;-79
2022/08/26 12:20:45;;;;;;;22.10;7.47;;;;;;;;;;5114458;27;20148;-78
2022/08/26 12:23:23;;;;;;;25.55;8.65;;;;;;;;;;5083172;28;20134;-79
2022/08/26 12:25:51;;;;;;;23.77;9.43;;;;;;;;;;5100217;28;20051;-80
2022/08/26 12:28:20;;;;;;;24.70;8.80;;;;;;;;;;5111179;27;20016;-80
2022/08/26 12:31:02;;;;;;;23.98;8.82;;;;;;;;;;5092040;28;20454;-79
2022/08/26 12:33:32;;;;;;;17.13;10.15;;;;;;;;;;5091777;28;20450;-79
2022/08/26 12:36:00;;;;;;;27.02;9.48;;;;;;;;;;5092725;28;20031;-77
2022/08/26 12:38:27;;;;;;;25.88;11.18;;;;;;;;;;5091879;28;20475;-79
2022/08/26 12:40:56;;;;;;;19.52;9.77;;;;;;;;;;5092600;28;20020;-78
2022/08/26 12:43:39;;;;;;;33.47;9.20;;;;;;;;;;5125131;27;20496;-79
2022/08/26 12:46:05;;;;;;;;;;;;;;;;;;5088221;28;20055;-78
2022/08/26 12:48:32;;;;;;;24.63;9.38;;;;;;;;;;5098868;28;19985;-78
2022/08/26 12:50:59;;;;;;;23.17;9.75;;;;;;;;;;5092334;28;20032;-80
2022/08/26 12:53:27;;;;;;;20.92;8.15;;;;;;;;;;5090977;28;20103;-80
2022/08/26 12:55:55;;;;;;;18.73;7.68;;;;;;;;;;5090337;28;20028;-79
2022/08/26 12:58:21;;;;;;;19.40;7.10;;;;;;;;;;5092409;28;20103;-77
2022/08/26 13:00:59;;;;;;;21.20;8.25;;;;;;;;;;5125042;27;20024;-79
2022/08/26 13:03:28;;;;;;;23.05;9.13;;;;;;;;;;5080574;28;20032;-79
2022/08/26 13:06:11;;;;;;;22.45;9.63;;;;;;;;;;5092157;28;20034;-79
2022/08/26 13:08:48;;;;;;;22.67;8.35;;;;;;;;;;5104555;27;20020;-77
2022/08/26 13:11:17;;;;;;;49.70;37.72;;;;;;;;;;5087061;28;20146;-80
2022/08/26 13:13:44;;;;;;;36.42;13.32;;;;;;;;;;5119734;27;20025;-78
2022/08/26 13:16:10;;;;;;;36.00;16.50;;;;;;;;;;5090011;28;20119;-77
2022/08/26 13:18:36;;;;;;;31.30;17.00;;;;;;;;;;5080987;28;20108;-80
2022/08/26 13:21:17;;;;;;;31.67;15.38;;;;;;;;;;5083974;28;20128;-77
2022/08/26 13:23:43;;;;;;;25.48;11.60;;;;;;;;;;5120181;27;20077;-78
2022/08/26 13:26:09;;;;;;;26.50;14.70;;;;;;;;;;5123438;27;20016;-76
2022/08/26 13:28:35;;;;;;;28.20;15.77;;;;;;;;;;5095071;28;20024;-77
2022/08/26 13:31:01;;;;;;;26.20;12.10;;;;;;;;;;5121349;27;20383;-76
2022/08/26 13:33:27;;;;;;;29.50;15.18;;;;;;;;;;5091925;28;20482;-78
2022/08/26 13:35:53;;;;;;;23.00;12.07;;;;;;;;;;5122918;27;20063;-80
2022/08/26 13:38:20;;;;;;;33.72;13.48;;;;;;;;;;5111789;27;20023;-80
2022/08/26 13:40:48;;;;;;;21.15;12.60;;;;;;;;;;5110630;27;20111;-80
2022/08/26 13:43:14;;;;;;;24.02;10.23;;;;;;;;;;5088014;28;20027;-80
2022/08/26 13:45:40;;;;;;;31.55;17.30;;;;;;;;;;5090255;28;20024;-77
2022/08/26 13:48:08;;;;;;;27.92;12.82;;;;;;;;;;5124222;27;20028;-75
2022/08/26 13:50:35;;;;;;;26.15;11.38;;;;;;;;;;5118408;27;20035;-75
2022/08/26 13:53:01;;;;;;;23.63;10.60;;;;;;;;;;5091987;28;20483;-79
2022/08/26 13:55:27;;;;;;;18.20;8.57;;;;;;;;;;5091404;28;20032;-74
2022/08/26 13:57:54;;;;;;;21.75;9.15;;;;;;;;;;5118709;27;20360;-77
2022/08/26 14:00:20;;;;;;;26.85;10.05;;;;;;;;;;5091612;28;20031;-79
2022/08/26 14:02:47;;;;;;;26.85;10.20;;;;;;;;;;5114370;27;20101;-76
2022/08/26 14:05:15;;;;;;;29.55;10.40;;;;;;;;;;5085778;28;20498;-75
2022/08/26 14:07:41;;;;;;;27.80;12.10;;;;;;;;;;5118764;27;20016;-76
2022/08/26 14:10:08;;;;;;;34.55;11.75;;;;;;;;;;5108966;28;20020;-79
2022/08/26 14:12:34;;;;;;;49.92;42.55;;;;;;;;;;5118916;28;20044;-76
2022/08/26 14:15:00;;;;;;;85.45;76.60;;;;;;;;;;5081200;28;20056;-77
2022/08/26 14:17:26;;;;;;;24.00;12.05;;;;;;;;;;5087718;28;20043;-79
2022/08/26 14:19:52;;;;;;;28.23;10.85;;;;;;;;;;5097785;28;20032;-80
2022/08/26 14:22:21;;;;;;;35.60;22.08;;;;;;;;;;5123844;27;20449;-79
2022/08/26 14:24:49;;;;;;;46.28;36.40;;;;;;;;;;5089770;28;20027;-76
2022/08/26 14:27:15;;;;;;;29.17;17.38;;;;;;;;;;5075892;28;20476;-78
2022/08/26 14:29:41;;;;;;;26.98;13.75;;;;;;;;;;5111322;28;20024;-78
2022/08/26 14:32:10;;;;;;;22.10;12.90;;;;;;;;;;5084329;28;20487;-76
2022/08/26 14:34:37;;;;;;;45.10;34.80;;;;;;;;;;5111471;27;20081;-80